Time;durP1;ratioP1;P1;durP2;ratioP2;P2;SDS_P1;SDS_P2;PMS_P1;PMS_P2;Temp;Humidity;BMP_temperature;BMP_pressure;BME280_temperature;BME280_humidity;BME280_pressure;Samples;Min_cycle;Max_cycle;Signal;HPM_P1;HPM_P2
2022/04/03 00:00:21;;;;;;;3.75;3.15;;;-1.00;99.90;;;;;;5000384;28;90280;-35
2022/04/03 00:02:47;;;;;;;5.10;3.80;;;-1.00;99.90;;;;;;4999691;28;90486;-34
2022/04/03 00:05:13;;;;;;;3.00;2.80;;;-1.00;99.90;;;;;;5000533;28;89181;-32
2022/04/03 00:07:38;;;;;;;5.65;2.88;;;-1.00;99.90;;;;;;4999865;28;87732;-34
2022/04/03 00:10:04;;;;;;;5.25;3.08;;;-1.10;99.90;;;;;;5000282;28;90380;-32
2022/04/03 00:12:30;;;;;;;4.10;3.53;;;-1.10;99.90;;;;;;4999407;28;90684;-37
2022/04/03 00:14:56;;;;;;;3.38;3.08;;;-1.10;99.90;;;;;;4999577;28;90711;-40
2022/04/03 00:17:21;;;;;;;4.05;3.28;;;-1.00;99.90;;;;;;5000522;28;88488;-33
2022/04/03 00:19:47;;;;;;;3.90;3.28;;;-1.00;99.90;;;;;;4999698;28;89854;-34
2022/04/03 00:22:13;;;;;;;5.15;3.72;;;-1.00;99.90;;;;;;5033049;22;89359;-33
2022/04/03 00:24:39;;;;;;;9.13;4.47;;;-1.00;99.90;;;;;;4999643;28;89238;-35
2022/04/03 00:27:05;;;;;;;5.13;4.03;;;-1.10;99.90;;;;;;4999077;28;90432;-38
2022/04/03 00:29:31;;;;;;;5.80;4.50;;;-1.10;99.90;;;;;;5000113;28;90046;-32
2022/04/03 00:31:57;;;;;;;4.60;3.95;;;-1.10;99.90;;;;;;4999641;28;90046;-34
2022/04/03 00:34:23;;;;;;;6.90;5.03;;;-1.10;99.90;;;;;;5000304;28;89601;-34
2022/04/03 00:36:49;;;;;;;7.22;3.60;;;-1.00;99.90;;;;;;4999413;28;90625;-33
2022/04/03 00:39:14;;;;;;;7.47;4.05;;;-1.00;99.90;;;;;;4999952;28;90706;-38
2022/04/03 00:41:41;;;;;;;5.20;4.50;;;-1.10;99.90;;;;;;5000199;28;89958;-33
2022/04/03 00:44:06;;;;;;;5.82;3.78;;;-1.10;99.90;;;;;;4999602;28;90596;-34
2022/04/03 00:46:33;;;;;;;3.60;2.92;;;-1.10;99.90;;;;;;5000858;28;89587;-32
2022/04/03 00:49:00;;;;;;;4.60;3.63;;;-1.10;99.90;;;;;;5000048;28;90242;-34
2022/04/03 00:51:29;;;;;;;3.97;3.63;;;-1.20;99.90;;;;;;4999372;28;89238;-36
2022/04/03 00:53:56;;;;;;;4.30;3.88;;;-1.10;99.90;;;;;;4999487;28;89609;-32
2022/04/03 00:56:21;;;;;;;5.45;3.97;;;-1.10;99.90;;;;;;5000581;28;90403;-33
2022/04/03 00:58:48;;;;;;;4.97;4.45;;;-1.10;99.90;;;;;;4999177;28;90228;-32
2022/04/03 01:01:14;;;;;;;5.20;4.68;;;-1.10;99.90;;;;;;4998317;28;90671;-33
2022/04/03 01:03:40;;;;;;;5.10;4.47;;;-1.00;99.90;;;;;;4999578;28;90254;-34
2022/04/03 01:06:05;;;;;;;7.00;5.30;;;-1.10;99.90;;;;;;4999948;28;89585;-34
2022/04/03 01:08:32;;;;;;;6.70;4.05;;;-1.10;99.90;;;;;;4999227;28;90737;-36
2022/04/03 01:10:58;;;;;;;6.35;4.35;;;-1.10;99.90;;;;;;4999499;28;89753;-33
2022/04/03 01:13:25;;;;;;;5.82;4.28;;;-1.10;99.90;;;;;;4998985;28;89121;-35
2022/04/03 01:16:01;;;;;;;5.47;4.28;;;-1.10;99.90;;;;;;4999680;28;89625;-36
2022/04/03 01:18:27;;;;;;;4.97;4.47;;;-1.00;99.90;;;;;;4999744;28;90110;-32
2022/04/03 01:20:53;;;;;;;4.72;4.32;;;-1.20;99.90;;;;;;4999334;28;89725;-33
2022/04/03 01:23:23;;;;;;;6.70;4.40;;;-1.20;99.90;;;;;;4998772;28;89816;-33
2022/04/03 01:25:48;;;;;;;10.93;4.43;;;-1.20;99.90;;;;;;4999012;28;89922;-33
2022/04/03 01:28:14;;;;;;;5.93;4.18;;;-1.20;99.90;;;;;;4999037;28;90320;-33
2022/04/03 01:30:40;;;;;;;4.80;4.20;;;-1.20;99.90;;;;;;4999209;28;89248;-33
2022/04/03 01:33:05;;;;;;;8.75;4.30;;;-1.20;99.90;;;;;;4999486;28;89335;-35
2022/04/03 01:35:31;;;;;;;6.07;4.35;;;-1.30;99.90;;;;;;4998666;28;89886;-33
2022/04/03 01:37:56;;;;;;;4.93;4.20;;;-1.30;99.90;;;;;;4998977;28;90044;-32
2022/04/03 01:40:22;;;;;;;6.35;4.05;;;-1.20;99.90;;;;;;5001205;28;89782;-34
2022/04/03 01:42:48;;;;;;;6.05;4.43;;;-1.20;99.90;;;;;;5003127;28;88428;-33
2022/04/03 01:45:13;;;;;;;3.85;3.53;;;-1.20;99.90;;;;;;5003476;28;89281;-35
2022/04/03 01:47:39;;;;;;;4.68;4.20;;;-1.20;99.90;;;;;;5002109;28;89405;-34
2022/04/03 01:50:05;;;;;;;4.75;4.35;;;-1.20;99.90;;;;;;5002451;28;91545;-34
2022/04/03 01:52:31;;;;;;;6.65;4.32;;;-1.30;99.90;;;;;;5001748;28;89378;-33
2022/04/03 01:54:56;;;;;;;5.82;4.28;;;-1.20;99.90;;;;;;5002956;28;89034;-34
2022/04/03 01:57:22;;;;;;;5.32;3.92;;;-1.30;99.90;;;;;;5001960;28;90559;-37
2022/04/03 01:59:48;;;;;;;4.72;4.15;;;-1.30;99.90;;;;;;5001846;28;89688;-34
2022/04/03 02:02:13;;;;;;;4.70;4.30;;;-1.30;99.90;;;;;;5002108;28;91069;-34
2022/04/03 02:04:39;;;;;;;4.55;3.65;;;-1.30;99.90;;;;;;5001870;28;88886;-33
2022/04/03 02:07:04;;;;;;;4.63;3.97;;;-1.40;99.90;;;;;;5002212;28;90670;-32
2022/04/03 02:09:30;;;;;;;6.75;4.00;;;-1.40;99.90;;;;;;5002306;28;89780;-35
2022/04/03 02:11:57;;;;;;;5.88;4.22;;;-1.40;99.90;;;;;;5002119;28;89555;-33
2022/04/03 02:14:26;;;;;;;6.32;3.80;;;-1.40;99.90;;;;;;5001981;28;89868;-33
2022/04/03 02:16:56;;;;;;;5.50;4.65;;;-1.50;99.90;;;;;;5001788;28;90299;-35
2022/04/03 02:19:22;;;;;;;4.13;3.80;;;-1.50;99.90;;;;;;5001935;28;90162;-36
2022/04/03 02:21:48;;;;;;;5.40;4.10;;;-1.50;99.90;;;;;;5000834;28;89529;-34
2022/04/03 02:24:14;;;;;;;5.22;3.95;;;-1.50;99.90;;;;;;5002231;28;88514;-35
2022/04/03 02:26:40;;;;;;;11.98;4.35;;;-1.40;99.90;;;;;;5001218;28;90718;-33
2022/04/03 02:29:06;;;;;;;8.48;4.13;;;-1.50;99.90;;;;;;5001599;28;90022;-36
2022/04/03 02:31:31;;;;;;;4.68;4.20;;;-1.50;99.90;;;;;;5002504;28;89972;-33
2022/04/03 02:33:57;;;;;;;5.18;4.68;;;-1.60;99.90;;;;;;5001955;28;88438;-33
2022/04/03 02:36:23;;;;;;;9.45;3.95;;;-1.50;99.90;;;;;;5002125;28;90765;-33
2022/04/03 02:38:49;;;;;;;8.80;4.05;;;-1.60;99.90;;;;;;5000605;28;93169;-33
2022/04/03 02:41:14;;;;;;;9.52;4.65;;;-1.50;99.90;;;;;;5001630;28;90335;-38
2022/04/03 02:43:40;;;;;;;12.35;4.47;;;-1.60;99.90;;;;;;5001813;28;89318;-35
2022/04/03 02:46:06;;;;;;;6.57;5.05;;;-1.60;99.90;;;;;;5001458;28;90390;-36
2022/04/03 02:48:33;;;;;;;4.05;3.70;;;-1.60;99.90;;;;;;5001252;28;90057;-34
2022/04/03 02:50:59;;;;;;;5.05;3.83;;;-1.60;99.90;;;;;;5000508;28;89413;-32
2022/04/03 02:53:25;;;;;;;4.93;4.38;;;-1.70;99.90;;;;;;5001886;28;89974;-33
2022/04/03 02:55:51;;;;;;;6.47;4.75;;;-1.70;99.90;;;;;;5001958;28;90346;-35
2022/04/03 02:58:17;;;;;;;5.20;4.22;;;-1.70;99.90;;;;;;5001655;28;90116;-34
2022/04/03 03:00:42;;;;;;;5.93;4.43;;;-1.70;99.90;;;;;;5001858;28;89239;-34
2022/04/03 03:03:09;;;;;;;5.00;4.50;;;-1.70;99.90;;;;;;5000922;28;90025;-35
2022/04/03 03:05:34;;;;;;;5.40;4.53;;;-1.80;99.90;;;;;;4983606;28;91034;-38
2022/04/03 03:08:01;;;;;;;7.88;4.07;;;-1.70;99.90;;;;;;5001623;28;89733;-32
2022/04/03 03:10:27;;;;;;;4.80;4.40;;;-1.70;99.90;;;;;;5000666;28;89680;-36
2022/04/03 03:12:53;;;;;;;6.20;5.07;;;-1.70;99.90;;;;;;5000952;28;89189;-38
2022/04/03 03:15:19;;;;;;;6.72;5.22;;;-1.60;99.90;;;;;;5001092;28;90475;-33
2022/04/03 03:17:46;;;;;;;9.50;4.63;;;-1.50;99.90;;;;;;5000826;28;90329;-33
2022/04/03 03:20:11;;;;;;;5.68;5.05;;;-1.40;99.90;;;;;;5001595;28;89509;-35
2022/04/03 03:22:37;;;;;;;9.13;4.70;;;-1.30;99.90;;;;;;5000559;28;88790;-35
2022/04/03 03:25:05;;;;;;;7.28;4.80;;;-1.20;99.90;;;;;;5000934;28;90180;-33
2022/04/03 03:27:31;;;;;;;6.50;5.47;;;-1.10;99.90;;;;;;5000729;28;89884;-35
2022/04/03 03:29:57;;;;;;;7.82;4.95;;;-0.90;99.90;;;;;;5000902;28;91872;-35
2022/04/03 03:32:24;;;;;;;8.18;4.88;;;-0.90;99.90;;;;;;5001138;28;89807;-32
2022/04/03 03:34:51;;;;;;;9.85;5.32;;;-0.80;99.90;;;;;;5000775;28;90320;-36
2022/04/03 03:37:16;;;;;;;5.35;4.10;;;-0.70;99.90;;;;;;4999908;28;89546;-32
2022/04/03 03:39:42;;;;;;;6.40;4.22;;;-0.70;99.90;;;;;;5000246;28;89483;-38
2022/04/03 03:42:08;;;;;;;5.13;4.63;;;-0.60;99.90;;;;;;5001134;28;87665;-33
2022/04/03 03:44:33;;;;;;;5.90;4.55;;;-0.60;99.90;;;;;;5000685;28;90455;-36
2022/04/03 03:46:59;;;;;;;4.60;4.20;;;-0.60;99.90;;;;;;5000367;28;89684;-33
2022/04/03 03:49:26;;;;;;;5.28;4.60;;;-0.50;99.90;;;;;;5000113;28;90379;-33
2022/04/03 03:51:52;;;;;;;6.38;5.68;;;-0.50;99.90;;;;;;4999507;28;90068;-37
2022/04/03 03:54:17;;;;;;;6.40;5.43;;;-0.40;99.90;;;;;;5000804;28;90056;-35
2022/04/03 03:56:43;;;;;;;4.82;4.43;;;-0.40;99.90;;;;;;5000016;28;89356;-33
2022/04/03 03:59:08;;;;;;;8.02;5.20;;;-0.40;99.90;;;;;;5000291;28;91852;-36
2022/04/03 04:01:34;;;;;;;5.32;4.82;;;-0.30;99.90;;;;;;4999412;28;88243;-33
2022/04/03 04:04:00;;;;;;;6.93;5.28;;;-0.30;99.90;;;;;;5000091;28;90624;-33
2022/04/03 04:06:26;;;;;;;12.85;4.85;;;-0.30;99.90;;;;;;5000872;28;89803;-32
2022/04/03 04:08:52;;;;;;;5.53;4.95;;;-0.30;99.90;;;;;;5000198;28;89494;-33
2022/04/03 04:11:17;;;;;;;7.85;5.45;;;-0.30;99.90;;;;;;5001196;28;90334;-35
2022/04/03 04:13:43;;;;;;;9.77;4.97;;;-0.20;99.90;;;;;;5000036;28;89385;-33
2022/04/03 04:16:10;;;;;;;5.72;5.00;;;-0.20;99.90;;;;;;5000323;28;90507;-33
2022/04/03 04:18:36;;;;;;;9.65;5.40;;;-0.20;99.90;;;;;;5000135;28;90929;-34
2022/04/03 04:21:03;;;;;;;9.80;4.88;;;-0.20;99.90;;;;;;5000460;28;89186;-34
2022/04/03 04:23:29;;;;;;;6.18;5.47;;;-0.20;99.90;;;;;;4999851;28;90237;-35
2022/04/03 04:25:55;;;;;;;6.50;4.80;;;-0.20;99.90;;;;;;5000401;28;89694;-32
2022/04/03 04:28:21;;;;;;;5.70;4.88;;;-0.20;99.90;;;;;;4999870;28;89969;-33
2022/04/03 04:30:46;;;;;;;8.00;5.88;;;-0.20;99.90;;;;;;5000412;28;89171;-34
2022/04/03 04:33:12;;;;;;;5.70;5.18;;;-0.20;99.90;;;;;;4999808;28;95707;-34
2022/04/03 04:35:38;;;;;;;6.18;5.47;;;-0.10;99.90;;;;;;4999530;28;90233;-37
2022/04/03 04:38:04;;;;;;;6.80;5.85;;;-0.10;99.90;;;;;;4999694;28;89685;-34
2022/04/03 04:40:31;;;;;;;5.28;4.82;;;-0.10;99.90;;;;;;4998888;28;89579;-34
2022/04/03 04:43:00;;;;;;;6.25;5.15;;;0.00;99.90;;;;;;4999644;28;90608;-36
2022/04/03 04:45:26;;;;;;;6.30;5.57;;;0.00;99.90;;;;;;5000382;28;89772;-35
2022/04/03 04:47:59;;;;;;;12.00;6.07;;;0.00;99.90;;;;;;4998896;28;90428;-33
2022/04/03 04:50:27;;;;;;;10.00;5.97;;;0.00;99.90;;;;;;5000140;28;89291;-33
2022/04/03 04:52:52;;;;;;;6.38;5.15;;;0.10;99.90;;;;;;5000093;28;89709;-33
2022/04/03 04:55:19;;;;;;;9.18;4.93;;;0.10;99.90;;;;;;4999154;28;88356;-34
2022/04/03 04:57:50;;;;;;;5.00;4.47;;;0.30;99.90;;;;;;4999729;28;89723;-33
2022/04/03 05:00:16;;;;;;;6.72;4.88;;;0.30;99.90;;;;;;4999566;28;88283;-34
2022/04/03 05:02:45;;;;;;;8.52;6.15;;;0.30;99.90;;;;;;4980913;28;92346;-33
2022/04/03 05:05:13;;;;;;;6.15;4.85;;;0.40;99.90;;;;;;5000039;28;90688;-32
2022/04/03 05:07:39;;;;;;;4.88;4.47;;;0.50;99.90;;;;;;4998997;28;89824;-31
2022/04/03 05:10:05;;;;;;;8.10;5.80;;;0.50;99.90;;;;;;4999800;28;89204;-33
2022/04/03 05:12:31;;;;;;;6.07;5.25;;;0.60;99.90;;;;;;4999066;28;90025;-33
2022/04/03 05:14:57;;;;;;;8.68;5.75;;;0.50;99.90;;;;;;4998056;28;89550;-32
2022/04/03 05:17:23;;;;;;;10.55;6.18;;;0.50;99.90;;;;;;4999062;28;89779;-33
2022/04/03 05:19:48;;;;;;;8.48;5.82;;;0.50;99.90;;;;;;4999193;28;88178;-35
2022/04/03 05:22:14;;;;;;;12.18;5.10;;;0.40;99.90;;;;;;4999218;28;90744;-33
2022/04/03 05:24:39;;;;;;;11.40;5.65;;;0.40;99.90;;;;;;4999085;28;91479;-32
2022/04/03 05:27:05;;;;;;;5.97;5.32;;;0.40;99.90;;;;;;4998461;28;89480;-35
2022/04/03 05:29:34;;;;;;;8.20;6.18;;;0.40;99.90;;;;;;4998855;28;88997;-32
2022/04/03 05:32:00;;;;;;;;;;;0.40;99.90;;;;;;5000466;28;89000;-33
2022/04/03 05:34:25;;;;;;;5.47;4.97;;;0.40;99.90;;;;;;5000029;28;91054;-35
2022/04/03 05:36:51;;;;;;;5.75;5.22;;;0.50;99.90;;;;;;4998810;28;88294;-34
2022/04/03 05:39:17;;;;;;;9.05;5.88;;;0.50;99.90;;;;;;4998636;28;90764;-34
2022/04/03 05:41:43;;;;;;;11.15;5.72;;;0.50;99.90;;;;;;4998804;28;90258;-34
2022/04/03 05:44:09;;;;;;;5.75;5.25;;;0.50;99.90;;;;;;4998420;28;94045;-34
2022/04/03 05:46:34;;;;;;;5.53;5.00;;;0.50;99.90;;;;;;4999183;28;89560;-36
2022/04/03 05:49:00;;;;;;;8.32;6.50;;;0.60;99.90;;;;;;4999319;28;89674;-34
2022/04/03 05:51:26;;;;;;;9.65;5.63;;;0.50;99.90;;;;;;4998443;28;90376;-33
2022/04/03 05:53:52;;;;;;;9.77;6.03;;;0.60;99.90;;;;;;4998532;28;90724;-33
2022/04/03 05:56:17;;;;;;;11.00;6.15;;;0.60;99.90;;;;;;4999247;28;90056;-35
2022/04/03 05:58:43;;;;;;;8.68;6.63;;;0.60;99.90;;;;;;4998444;28;89664;-36
2022/04/03 06:01:08;;;;;;;7.53;5.43;;;0.60;99.90;;;;;;4999027;28;89205;-32
2022/04/03 06:03:34;;;;;;;6.05;5.43;;;0.70;99.90;;;;;;4998652;28;88437;-33
2022/04/03 06:06:00;;;;;;;10.15;5.25;;;0.70;99.90;;;;;;4998708;28;89643;-33
2022/04/03 06:08:26;;;;;;;6.03;5.43;;;0.70;99.90;;;;;;4998602;28;89141;-35
2022/04/03 06:10:51;;;;;;;6.93;5.38;;;0.70;99.90;;;;;;4998789;28;90039;-33
2022/04/03 06:13:17;;;;;;;6.07;5.57;;;0.70;99.90;;;;;;4999147;28;90752;-33
2022/04/03 06:15:46;;;;;;;6.90;6.30;;;0.70;99.90;;;;;;4997962;28;90199;-34
2022/04/03 06:18:15;;;;;;;8.60;4.97;;;0.70;99.90;;;;;;4998139;28;89126;-36
2022/04/03 06:20:41;;;;;;;7.03;5.50;;;0.80;99.90;;;;;;4997951;28;90729;-35
2022/04/03 06:23:18;;;;;;;6.95;5.43;;;0.80;99.90;;;;;;4998632;28;90310;-33
2022/04/03 06:25:45;;;;;;;6.30;5.38;;;0.80;99.90;;;;;;4998425;28;89304;-34
2022/04/03 06:28:10;;;;;;;9.00;5.43;;;0.80;99.90;;;;;;5001502;28;89029;-36
2022/04/03 06:30:36;;;;;;;6.45;5.85;;;0.80;99.90;;;;;;5001579;28;90125;-33
2022/04/03 06:33:02;;;;;;;6.15;5.55;;;0.80;99.90;;;;;;5001176;28;90295;-37
2022/04/03 06:35:28;;;;;;;9.13;6.32;;;0.80;99.90;;;;;;5002284;28;89551;-33
2022/04/03 06:37:53;;;;;;;5.65;5.15;;;0.80;99.90;;;;;;5001565;28;88367;-33
2022/04/03 06:40:19;;;;;;;5.18;4.78;;;0.90;99.90;;;;;;5000089;28;89200;-35
2022/04/03 06:42:45;;;;;;;5.97;5.40;;;1.10;99.90;;;;;;5000895;28;90389;-33
2022/04/03 06:45:11;;;;;;;6.40;5.82;;;1.30;99.90;;;;;;5001472;28;91004;-33
2022/04/03 06:47:36;;;;;;;7.13;6.38;;;1.60;99.90;;;;;;5001586;28;89689;-35
2022/04/03 06:50:05;;;;;;;6.88;5.18;;;1.90;99.90;;;;;;5001167;28;90154;-35
2022/04/03 06:52:31;;;;;;;6.22;5.57;;;2.00;99.90;;;;;;5001452;28;90198;-33
2022/04/03 06:54:56;;;;;;;8.05;5.82;;;1.90;99.90;;;;;;5001289;28;89475;-32
2022/04/03 06:57:22;;;;;;;6.75;5.50;;;1.80;99.90;;;;;;4941603;28;89163;-32
2022/04/03 06:59:48;;;;;;;8.43;5.68;;;1.80;99.90;;;;;;4990551;28;90227;-34
2022/04/03 07:02:13;;;;;;;6.82;5.28;;;1.90;99.90;;;;;;5002096;28;89711;-34
2022/04/03 07:04:39;;;;;;;6.57;5.72;;;1.90;99.90;;;;;;5000589;28;89716;-33
2022/04/03 07:07:05;;;;;;;6.03;5.10;;;2.00;99.90;;;;;;5001362;28;89573;-33
2022/04/03 07:09:31;;;;;;;5.93;5.50;;;2.20;99.90;;;;;;4983315;28;90839;-33
2022/04/03 07:11:57;;;;;;;5.63;5.05;;;2.50;99.90;;;;;;5002046;28;88433;-37
2022/04/03 07:14:22;;;;;;;6.03;4.85;;;2.60;99.90;;;;;;5001185;28;90434;-32
2022/04/03 07:16:48;;;;;;;7.10;5.22;;;2.80;99.90;;;;;;5000891;28;89656;-33
2022/04/03 07:19:14;;;;;;;5.95;5.35;;;3.00;99.90;;;;;;5001296;28;90346;-35
2022/04/03 07:21:40;;;;;;;5.15;4.75;;;3.20;99.90;;;;;;5000245;28;89429;-33
2022/04/03 07:24:06;;;;;;;5.18;4.65;;;3.40;99.90;;;;;;5001273;28;89693;-38
2022/04/03 07:26:32;;;;;;;5.13;4.72;;;3.50;99.90;;;;;;5001627;28;89906;-35
2022/04/03 07:28:58;;;;;;;5.32;4.82;;;3.30;99.90;;;;;;5000744;28;89460;-33
2022/04/03 07:31:25;;;;;;;4.90;4.18;;;3.20;99.90;;;;;;5000681;28;90425;-35
2022/04/03 07:33:50;;;;;;;6.43;4.55;;;3.40;99.90;;;;;;5000489;28;89397;-34
2022/04/03 07:36:16;;;;;;;7.18;5.60;;;3.50;99.90;;;;;;5000810;28;90022;-37
2022/04/03 07:38:42;;;;;;;5.70;5.20;;;3.70;99.90;;;;;;5000617;28;89837;-36
2022/04/03 07:41:07;;;;;;;5.63;4.53;;;3.80;99.90;;;;;;5000326;28;89560;-32
2022/04/03 07:43:33;;;;;;;8.27;4.80;;;3.60;99.90;;;;;;5000782;28;89648;-36
2022/04/03 07:45:58;;;;;;;5.43;4.53;;;3.60;99.90;;;;;;5000850;28;89376;-32
2022/04/03 07:48:24;;;;;;;5.75;5.03;;;3.50;99.90;;;;;;5000997;28;90324;-37
2022/04/03 07:50:51;;;;;;;7.93;5.30;;;3.90;99.90;;;;;;5000209;28;90001;-37
2022/04/03 07:53:17;;;;;;;5.53;4.40;;;4.70;99.90;;;;;;5000491;28;89624;-34
2022/04/03 07:55:43;;;;;;;5.32;4.43;;;5.50;99.90;;;;;;5000127;28;90558;-35
2022/04/03 07:58:08;;;;;;;7.20;4.10;;;6.20;99.90;;;;;;5000645;28;91344;-34
2022/04/03 08:00:34;;;;;;;4.28;3.65;;;6.20;99.90;;;;;;5000695;28;90174;-33
2022/04/03 08:03:00;;;;;;;4.10;3.80;;;5.90;99.90;;;;;;5000686;28;88961;-32
2022/04/03 08:05:25;;;;;;;5.53;4.03;;;5.80;99.90;;;;;;5000093;28;88810;-34
2022/04/03 08:07:51;;;;;;;4.68;3.83;;;5.70;99.90;;;;;;5000157;28;89998;-32
2022/04/03 08:10:19;;;;;;;3.92;3.63;;;5.50;99.90;;;;;;4999937;28;88819;-34
2022/04/03 08:12:46;;;;;;;3.72;3.38;;;5.90;99.90;;;;;;4999855;28;90634;-33
2022/04/03 08:15:14;;;;;;;5.47;3.33;;;6.40;99.90;;;;;;5000842;28;90029;-33
2022/04/03 08:17:40;;;;;;;5.45;3.22;;;6.30;99.90;;;;;;5000753;28;90217;-33
2022/04/03 08:20:08;;;;;;;4.10;2.92;;;6.50;99.90;;;;;;4999061;28;90713;-34
2022/04/03 08:22:36;;;;;;;4.43;2.60;;;6.70;99.90;;;;;;4999410;28;90389;-35
2022/04/03 08:25:02;;;;;;;3.58;3.25;;;6.70;99.90;;;;;;5000531;28;89254;-37
2022/04/03 08:28:00;;;;;;;4.85;2.70;;;7.00;99.90;;;;;;5000313;28;90160;-33
2022/04/03 08:30:36;;;;;;;5.20;3.50;;;7.50;99.90;;;;;;4970280;28;90954;-35
2022/04/03 08:33:04;;;;;;;3.35;2.80;;;7.70;99.90;;;;;;4981648;28;89484;-33
2022/04/03 08:35:31;;;;;;;3.35;2.08;;;7.90;99.90;;;;;;4997031;28;89184;-36
2022/04/03 08:37:58;;;;;;;5.50;2.75;;;7.60;99.90;;;;;;4997426;28;90827;-33
2022/04/03 08:40:25;;;;;;;7.40;2.95;;;7.70;99.90;;;;;;4997029;28;90410;-34
2022/04/03 08:42:52;;;;;;;6.13;2.80;;;7.70;99.90;;;;;;4997718;28;88393;-34
2022/04/03 08:45:18;;;;;;;7.65;2.65;;;8.00;99.90;;;;;;4997170;28;88710;-36
2022/04/03 08:47:52;;;;;;;2.58;2.35;;;8.30;99.90;;;;;;4996615;28;90150;-34
2022/04/03 08:50:19;;;;;;;3.45;2.80;;;8.70;99.90;;;;;;4995911;28;89761;-37
2022/04/03 08:52:48;;;;;;;2.53;2.30;;;8.00;99.90;;;;;;4997415;28;89643;-37
2022/04/03 08:55:14;;;;;;;4.00;2.75;;;8.10;99.90;;;;;;4997787;28;88703;-35
2022/04/03 08:57:40;;;;;;;6.68;2.75;;;8.50;99.90;;;;;;4996720;28;90315;-35
2022/04/03 09:00:07;;;;;;;4.55;1.98;;;8.30;99.90;;;;;;4996419;28;89622;-38
2022/04/03 09:02:33;;;;;;;3.50;2.50;;;8.30;99.90;;;;;;4997542;28;91223;-34
2022/04/03 09:04:59;;;;;;;4.43;2.33;;;8.50;99.90;;;;;;4996658;28;89709;-33
2022/04/03 09:07:25;;;;;;;1.55;1.45;;;8.40;99.90;;;;;;4997210;28;89629;-39
2022/04/03 09:10:00;;;;;;;2.63;2.22;;;8.60;99.90;;;;;;4996263;28;91766;-33
2022/04/03 09:12:26;;;;;;;2.50;1.70;;;9.10;99.90;;;;;;4997036;28;90567;-38
2022/04/03 09:14:53;;;;;;;4.07;1.80;;;9.30;99.90;;;;;;4997216;28;88086;-34
2022/04/03 09:17:37;;;;;;;4.57;1.55;;;9.50;99.90;;;;;;4996829;28;91297;-34
2022/04/03 09:20:08;;;;;;;7.85;2.28;;;9.60;99.90;;;;;;4996617;28;90469;-36
2022/04/03 09:22:35;;;;;;;3.08;1.77;;;9.30;99.90;;;;;;4996028;28;90272;-36
2022/04/03 09:25:04;;;;;;;5.55;2.13;;;9.50;99.90;;;;;;4997247;28;90186;-32
2022/04/03 09:27:45;;;;;;;4.00;1.85;;;9.70;99.90;;;;;;4997795;28;89981;-34
2022/04/03 09:30:11;;;;;;;4.30;1.60;;;9.00;99.90;;;;;;4996455;28;90035;-34
2022/04/03 09:32:47;;;;;;;1.50;1.40;;;8.60;99.90;;;;;;4996591;28;89679;-34
2022/04/03 09:35:14;;;;;;;2.45;1.48;;;8.40;99.90;;;;;;4996119;28;90953;-36
2022/04/03 09:37:39;;;;;;;2.38;1.50;;;8.50;99.90;;;;;;4996908;28;89696;-33
2022/04/03 09:40:06;;;;;;;3.65;1.55;;;7.90;99.90;;;;;;4996563;28;89730;-34
2022/04/03 09:42:31;;;;;;;4.68;1.60;;;7.90;99.90;;;;;;4947718;28;91560;-33
2022/04/03 09:44:57;;;;;;;3.83;1.50;;;7.70;99.90;;;;;;4996519;28;87848;-33
2022/04/03 09:47:29;;;;;;;1.88;1.17;;;7.90;99.90;;;;;;4978428;28;89052;-33
2022/04/03 09:50:05;;;;;;;4.55;1.45;;;8.70;99.90;;;;;;4996098;28;89990;-34
2022/04/03 09:52:41;;;;;;;3.78;1.00;;;9.30;99.90;;;;;;4997009;28;89420;-34
2022/04/03 09:55:18;;;;;;;3.03;1.20;;;9.80;99.90;;;;;;4996428;28;89706;-33
2022/04/03 09:57:46;;;;;;;2.17;1.92;;;10.30;99.90;;;;;;4996076;28;90041;-31
2022/04/03 10:00:14;;;;;;;2.57;1.60;;;9.90;99.90;;;;;;4996683;28;92677;-34
2022/04/03 10:02:45;;;;;;;1.60;1.48;;;9.60;99.90;;;;;;4999302;28;90392;-35
2022/04/03 10:05:11;;;;;;;9.25;2.60;;;9.50;99.90;;;;;;5000162;28;87747;-32
2022/04/03 10:07:39;;;;;;;4.40;1.50;;;10.00;99.90;;;;;;4999618;28;89352;-32
2022/04/03 10:10:06;;;;;;;1.35;1.25;;;10.30;99.90;;;;;;4998963;28;90231;-38
2022/04/03 10:12:33;;;;;;;1.40;1.25;;;10.50;99.90;;;;;;4999775;28;89571;-34
2022/04/03 10:14:59;;;;;;;1.23;1.13;;;9.60;99.90;;;;;;4999442;28;87619;-35
2022/04/03 10:17:25;;;;;;;2.42;1.48;;;9.20;88.60;;;;;;4999664;28;90168;-37
2022/04/03 10:19:51;;;;;;;3.45;1.20;;;8.90;99.90;;;;;;4908792;28;89728;-34
2022/04/03 10:22:26;;;;;;;2.78;1.33;;;8.50;99.90;;;;;;4999335;28;90159;-32
2022/04/03 10:24:55;;;;;;;1.58;1.48;;;8.30;99.90;;;;;;4999251;28;89845;-33
2022/04/03 10:27:34;;;;;;;2.25;1.20;;;8.20;99.90;;;;;;4999960;28;90229;-35
2022/04/03 10:30:00;;;;;;;3.50;1.02;;;7.90;99.90;;;;;;5000037;28;89903;-34
2022/04/03 10:32:27;;;;;;;1.55;1.40;;;7.80;99.90;;;;;;4999433;28;89194;-33
2022/04/03 10:35:13;;;;;;;0.85;0.85;;;8.50;99.90;;;;;;4998925;28;89308;-35
2022/04/03 10:37:42;;;;;;;3.67;1.45;;;9.50;99.90;;;;;;4998942;28;90414;-34
2022/04/03 10:40:16;;;;;;;2.63;1.10;;;10.10;89.60;;;;;;4999652;28;90148;-34
2022/04/03 10:42:52;;;;;;;1.52;1.20;;;9.80;91.60;;;;;;4999157;28;88975;-36
2022/04/03 10:45:32;;;;;;;1.60;1.10;;;9.30;96.90;;;;;;4999001;28;90133;-37
2022/04/03 10:48:19;;;;;;;1.73;1.08;;;9.10;99.30;;;;;;4998424;28;90494;-35
2022/04/03 10:51:11;;;;;;;3.20;1.37;;;9.00;99.90;;;;;;4998402;28;90628;-34
2022/04/03 10:53:41;;;;;;;2.90;1.45;;;9.10;99.90;;;;;;4998744;28;90355;-35
2022/04/03 10:56:23;;;;;;;3.42;1.73;;;8.70;99.90;;;;;;4998913;28;87655;-34
2022/04/03 10:58:51;;;;;;;7.20;1.75;;;8.60;99.90;;;;;;4997999;28;90181;-34
2022/04/03 11:01:31;;;;;;;3.78;1.45;;;8.60;99.90;;;;;;4999084;28;90001;-34
2022/04/03 11:04:02;;;;;;;1.42;1.10;;;8.70;99.90;;;;;;4999268;28;89668;-34
2022/04/03 11:06:30;;;;;;;3.47;1.10;;;8.70;99.90;;;;;;4999458;28;89122;-33
2022/04/03 11:09:03;;;;;;;5.18;1.20;;;8.50;99.90;;;;;;4998778;28;90468;-33
2022/04/03 11:11:37;;;;;;;2.75;1.83;;;8.20;99.90;;;;;;4997359;28;90635;-33
2022/04/03 11:14:06;;;;;;;2.30;1.70;;;8.20;99.90;;;;;;4998534;28;89254;-34
2022/04/03 11:16:53;;;;;;;2.40;1.67;;;8.10;99.90;;;;;;4999091;28;89318;-35
2022/04/03 11:19:35;;;;;;;2.55;1.60;;;8.10;99.90;;;;;;4998619;28;90789;-36
2022/04/03 11:22:02;;;;;;;6.00;2.30;;;8.00;99.90;;;;;;4997602;28;89782;-32
2022/04/03 11:24:28;;;;;;;7.45;1.58;;;7.80;99.90;;;;;;4998090;28;89780;-35
2022/04/03 11:26:54;;;;;;;3.00;1.40;;;7.70;99.90;;;;;;4998536;28;89102;-36
2022/04/03 11:29:20;;;;;;;6.95;1.73;;;7.80;99.90;;;;;;4998659;28;89314;-35
2022/04/03 11:31:46;;;;;;;3.50;1.35;;;7.80;99.90;;;;;;4998227;28;89706;-36
2022/04/03 11:34:12;;;;;;;2.33;1.35;;;7.70;99.90;;;;;;4998654;28;90223;-33
2022/04/03 11:36:38;;;;;;;1.38;1.20;;;7.80;99.90;;;;;;4998041;28;87664;-35
2022/04/03 11:39:08;;;;;;;3.40;1.25;;;8.00;99.90;;;;;;4980182;28;90212;-34
2022/04/03 11:41:35;;;;;;;2.65;1.52;;;8.40;99.90;;;;;;4997136;28;89781;-38
2022/04/03 11:44:02;;;;;;;1.40;1.30;;;9.00;99.90;;;;;;4998574;28;90122;-34
2022/04/03 11:46:37;;;;;;;4.20;1.80;;;9.30;99.90;;;;;;4998922;28;88512;-34
2022/04/03 11:49:17;;;;;;;1.48;1.35;;;9.30;99.90;;;;;;4996863;28;91282;-35
2022/04/03 11:51:44;;;;;;;2.42;1.60;;;9.50;99.90;;;;;;4996888;28;89336;-34
2022/04/03 11:54:10;;;;;;;3.63;1.67;;;9.30;99.90;;;;;;4980089;28;89942;-37
2022/04/03 11:56:37;;;;;;;2.30;1.27;;;9.30;99.90;;;;;;4979940;28;87652;-36
2022/04/03 11:59:08;;;;;;;2.60;1.35;;;8.70;98.60;;;;;;4997279;28;91203;-34
2022/04/03 12:01:36;;;;;;;1.95;1.25;;;9.00;99.90;;;;;;4997652;28;89720;-33
2022/04/03 12:04:15;;;;;;;1.57;1.47;;;8.80;99.90;;;;;;4997505;28;89344;-31
2022/04/03 12:06:46;;;;;;;2.10;1.45;;;8.60;99.90;;;;;;4997330;28;90125;-33
2022/04/03 12:09:14;;;;;;;3.03;1.67;;;8.50;99.90;;;;;;4997675;28;90735;-32
2022/04/03 12:11:45;;;;;;;2.50;1.55;;;8.50;99.90;;;;;;4997147;28;89751;-32
2022/04/03 12:14:11;;;;;;;1.85;1.50;;;8.70;99.90;;;;;;4980044;28;89638;-33
2022/04/03 12:16:38;;;;;;;2.33;1.08;;;8.80;99.90;;;;;;4979624;28;89681;-35
2022/04/03 12:19:06;;;;;;;1.65;1.15;;;8.80;99.90;;;;;;4997420;28;90459;-33
2022/04/03 12:21:49;;;;;;;3.03;1.40;;;8.40;99.90;;;;;;5039124;22;91171;-32
2022/04/03 12:24:17;;;;;;;5.65;1.38;;;8.40;99.90;;;;;;4976505;28;89484;-35
2022/04/03 12:26:59;;;;;;;1.35;1.25;;;8.40;99.90;;;;;;4977968;28;89166;-34
2022/04/03 12:29:26;;;;;;;3.03;1.83;;;8.20;99.90;;;;;;4976737;28;90047;-36
2022/04/03 12:32:03;;;;;;;1.73;1.63;;;8.20;99.90;;;;;;4976898;28;91456;-31
2022/04/03 12:34:31;;;;;;;3.92;1.80;;;8.00;99.90;;;;;;4977671;28;90290;-32
2022/04/03 12:36:59;;;;;;;5.33;1.73;;;8.10;99.90;;;;;;4976949;28;88312;-34
2022/04/03 12:39:28;;;;;;;5.97;1.88;;;8.10;99.90;;;;;;4976940;28;89281;-33
2022/04/03 12:41:56;;;;;;;3.47;1.85;;;8.30;99.90;;;;;;4977044;28;89835;-35
2022/04/03 12:44:21;;;;;;;3.00;1.65;;;8.30;99.90;;;;;;4977698;28;89588;-33
2022/04/03 12:46:47;;;;;;;5.38;1.92;;;8.50;99.90;;;;;;4977528;28;88834;-35
2022/04/03 12:49:19;;;;;;;1.40;1.30;;;8.30;99.90;;;;;;4976913;28;90256;-33
2022/04/03 12:51:49;;;;;;;1.52;1.42;;;8.30;99.90;;;;;;4976383;28;89857;-33
2022/04/03 12:54:15;;;;;;;2.38;1.85;;;8.40;99.90;;;;;;4976707;28;89646;-35